Time;durP1;ratioP1;P1;durP2;ratioP2;P2;SDS_P1;SDS_P2;PMS_P1;PMS_P2;Temp;Humidity;BMP_temperature;BMP_pressure;BME280_temperature;BME280_humidity;BME280_pressure;Samples;Min_cycle;Max_cycle;Signal;HPM_P1;HPM_P2
2022/03/12 00:01:00;;;;;;;12.50;6.75;;;;;;;;;;5070045;28;20489;-79
2022/03/12 00:03:26;;;;;;;11.07;6.38;;;;;;;;;;5053751;28;20484;-79
2022/03/12 00:05:54;;;;;;;11.43;5.28;;;;;;;;;;5070253;28;20047;-78
2022/03/12 00:08:21;;;;;;;11.77;5.45;;;;;;;;;;5053887;28;20094;-79
2022/03/12 00:10:52;;;;;;;11.10;5.90;;;;;;;;;;5053569;28;20048;-79
2022/03/12 00:13:21;;;;;;;9.82;5.75;;;;;;;;;;5070538;28;20131;-80
2022/03/12 00:15:50;;;;;;;13.80;6.07;;;;;;;;;;5053349;28;20048;-79
2022/03/12 00:18:19;;;;;;;8.38;5.78;;;;;;;;;;5070056;28;20048;-78
2022/03/12 00:20:48;;;;;;;11.82;5.65;;;;;;;;;;5053349;28;20036;-79
2022/03/12 00:23:15;;;;;;;9.98;5.40;;;;;;;;;;5070192;28;20047;-79
2022/03/12 00:25:42;;;;;;;12.82;5.60;;;;;;;;;;5070235;28;20505;-79
2022/03/12 00:28:08;;;;;;;11.55;5.70;;;;;;;;;;5053393;28;20041;-79
2022/03/12 00:30:35;;;;;;;10.98;5.80;;;;;;;;;;5069969;28;20059;-79
2022/03/12 00:33:02;;;;;;;12.20;6.35;;;;;;;;;;5069951;28;20514;-79
2022/03/12 00:35:28;;;;;;;9.57;5.68;;;;;;;;;;5053223;28;20396;-79
2022/03/12 00:37:54;;;;;;;13.07;5.82;;;;;;;;;;5052994;28;20041;-78
2022/03/12 00:40:21;;;;;;;9.48;5.35;;;;;;;;;;5053408;28;20558;-79
2022/03/12 00:42:47;;;;;;;12.38;6.10;;;;;;;;;;5053105;28;20564;-79
2022/03/12 00:45:13;;;;;;;11.55;6.55;;;;;;;;;;5053076;28;20119;-79
2022/03/12 00:47:39;;;;;;;12.10;5.43;;;;;;;;;;5069728;28;20036;-79
2022/03/12 00:50:05;;;;;;;11.85;5.97;;;;;;;;;;5069728;28;20029;-79
2022/03/12 00:52:32;;;;;;;9.98;6.55;;;;;;;;;;5070007;28;20496;-79
2022/03/12 00:54:58;;;;;;;9.27;5.47;;;;;;;;;;5053000;28;20449;-79
2022/03/12 00:57:24;;;;;;;10.48;6.18;;;;;;;;;;5052950;28;20076;-79
2022/03/12 00:59:50;;;;;;;11.63;6.07;;;;;;;;;;5069677;28;20044;-80
2022/03/12 01:02:16;;;;;;;9.88;5.50;;;;;;;;;;5052753;28;20044;-79
2022/03/12 01:04:43;;;;;;;10.30;6.03;;;;;;;;;;5069621;28;20043;-79
2022/03/12 01:07:10;;;;;;;10.77;5.78;;;;;;;;;;5052996;28;20378;-80
2022/03/12 01:09:36;;;;;;;11.55;5.93;;;;;;;;;;5069448;28;20083;-79
2022/03/12 01:12:02;;;;;;;17.63;5.97;;;;;;;;;;5053227;28;20072;-79
2022/03/12 01:14:29;;;;;;;13.80;5.90;;;;;;;;;;5055409;28;20079;-79
2022/03/12 01:16:58;;;;;;;11.77;6.55;;;;;;;;;;5056373;28;20135;-78
2022/03/12 01:19:24;;;;;;;13.57;6.13;;;;;;;;;;5056299;28;20120;-79
2022/03/12 01:21:50;;;;;;;8.32;5.72;;;;;;;;;;5072930;28;20040;-79
2022/03/12 01:24:16;;;;;;;12.10;5.85;;;;;;;;;;5056224;28;20036;-79
2022/03/12 01:26:42;;;;;;;9.73;5.60;;;;;;;;;;5072899;28;20174;-79
2022/03/12 01:29:08;;;;;;;12.85;6.10;;;;;;;;;;5073060;28;20119;-79
2022/03/12 01:31:37;;;;;;;11.50;5.60;;;;;;;;;;5072872;28;20047;-79
2022/03/12 01:34:04;;;;;;;10.75;5.55;;;;;;;;;;5072748;28;20040;-79
2022/03/12 01:36:30;;;;;;;12.63;6.13;;;;;;;;;;5056406;28;20054;-79
2022/03/12 01:38:57;;;;;;;11.25;6.40;;;;;;;;;;5056388;28;20083;-79
2022/03/12 01:41:25;;;;;;;9.00;5.40;;;;;;;;;;5056058;28;20093;-79
2022/03/12 01:43:53;;;;;;;10.95;5.75;;;;;;;;;;5072928;28;20048;-79
2022/03/12 01:46:23;;;;;;;12.93;6.10;;;;;;;;;;5055837;28;20488;-80
2022/03/12 01:48:51;;;;;;;11.30;5.25;;;;;;;;;;5055805;28;20496;-77
2022/03/12 01:51:17;;;;;;;9.98;5.80;;;;;;;;;;5072828;28;20067;-78
2022/03/12 01:53:43;;;;;;;12.07;6.30;;;;;;;;;;5072587;28;20040;-78
2022/03/12 01:56:09;;;;;;;10.25;5.75;;;;;;;;;;5056070;28;20123;-78
2022/03/12 01:58:36;;;;;;;13.32;7.00;;;;;;;;;;5055802;28;20101;-77
2022/03/12 02:01:03;;;;;;;9.68;6.10;;;;;;;;;;5055782;28;20037;-80
2022/03/12 02:03:29;;;;;;;12.20;5.75;;;;;;;;;;5055943;28;20041;-77
2022/03/12 02:05:56;;;;;;;10.30;5.72;;;;;;;;;;5072623;28;20079;-75
2022/03/12 02:08:22;;;;;;;10.00;5.65;;;;;;;;;;5055991;28;20048;-78
2022/03/12 02:10:50;;;;;;;10.63;5.70;;;;;;;;;;5055572;28;20404;-79
2022/03/12 02:13:16;;;;;;;12.20;6.07;;;;;;;;;;5055774;28;20052;-79
2022/03/12 02:15:42;;;;;;;9.88;5.75;;;;;;;;;;5055195;28;20519;-78
2022/03/12 02:18:09;;;;;;;10.63;6.05;;;;;;;;;;5055344;28;20049;-79
2022/03/12 02:20:35;;;;;;;10.45;5.95;;;;;;;;;;5055461;28;20044;-79
2022/03/12 02:23:01;;;;;;;14.00;5.80;;;;;;;;;;5055367;28;20048;-79
2022/03/12 02:25:28;;;;;;;11.02;6.03;;;;;;;;;;5055080;28;20063;-79
2022/03/12 02:27:54;;;;;;;10.88;5.38;;;;;;;;;;5055577;28;20113;-78
2022/03/12 02:30:22;;;;;;;15.65;7.28;;;;;;;;;;5055255;28;20435;-75
2022/03/12 02:32:48;;;;;;;10.05;5.95;;;;;;;;;;5071850;28;20048;-78
2022/03/12 02:35:15;;;;;;;15.13;6.03;;;;;;;;;;5055363;28;20047;-79
2022/03/12 02:37:48;;;;;;;9.00;5.60;;;;;;;;;;5071851;28;20044;-77
2022/03/12 02:40:14;;;;;;;11.35;6.32;;;;;;;;;;5055153;28;20040;-79
2022/03/12 02:42:40;;;;;;;11.75;5.47;;;;;;;;;;5071336;28;20072;-77
2022/03/12 02:45:07;;;;;;;11.73;6.03;;;;;;;;;;5071538;28;20063;-79
2022/03/12 02:47:34;;;;;;;11.90;6.05;;;;;;;;;;5055477;28;20127;-77
2022/03/12 02:50:03;;;;;;;9.95;5.85;;;;;;;;;;5055255;28;20032;-79
2022/03/12 02:52:29;;;;;;;10.82;6.00;;;;;;;;;;5054853;28;20408;-76
2022/03/12 02:54:57;;;;;;;16.30;6.57;;;;;;;;;;5055076;28;20044;-77
2022/03/12 02:57:25;;;;;;;13.50;6.25;;;;;;;;;;5071490;28;20365;-75
2022/03/12 02:59:53;;;;;;;10.10;6.57;;;;;;;;;;5071812;28;20052;-78
2022/03/12 03:02:25;;;;;;;12.20;6.10;;;;;;;;;;5054717;28;20540;-78
2022/03/12 03:04:51;;;;;;;12.07;6.30;;;;;;;;;;5054889;28;20032;-78
2022/03/12 03:07:18;;;;;;;10.88;5.38;;;;;;;;;;5054837;28;20448;-79
2022/03/12 03:09:44;;;;;;;12.32;5.80;;;;;;;;;;5071341;28;20082;-78
2022/03/12 03:12:12;;;;;;;10.60;6.38;;;;;;;;;;5054574;28;20424;-78
2022/03/12 03:14:43;;;;;;;10.52;6.20;;;;;;;;;;5054086;28;20059;-79
2022/03/12 03:17:11;;;;;;;10.10;6.35;;;;;;;;;;5054782;28;20043;-78
2022/03/12 03:19:38;;;;;;;11.63;5.85;;;;;;;;;;5054525;28;20043;-78
2022/03/12 03:22:04;;;;;;;11.02;6.55;;;;;;;;;;5070984;28;20045;-78
2022/03/12 03:24:30;;;;;;;11.13;6.55;;;;;;;;;;5054307;28;20039;-79
2022/03/12 03:26:57;;;;;;;10.98;5.97;;;;;;;;;;5054101;28;20036;-77
2022/03/12 03:29:25;;;;;;;12.10;6.20;;;;;;;;;;5054671;28;20119;-78
2022/03/12 03:31:51;;;;;;;9.90;6.35;;;;;;;;;;5071312;28;20500;-78
2022/03/12 03:34:18;;;;;;;10.38;6.35;;;;;;;;;;5054414;28;20044;-78
2022/03/12 03:36:44;;;;;;;10.98;5.88;;;;;;;;;;5070523;28;20044;-79
2022/03/12 03:39:10;;;;;;;12.73;5.65;;;;;;;;;;5054298;28;20044;-77
2022/03/12 03:41:36;;;;;;;11.73;6.40;;;;;;;;;;5054090;28;20519;-79
2022/03/12 03:44:05;;;;;;;13.32;5.63;;;;;;;;;;5070822;28;20037;-78
2022/03/12 03:46:31;;;;;;;11.02;6.28;;;;;;;;;;5071029;28;20040;-77
2022/03/12 03:48:57;;;;;;;11.75;6.10;;;;;;;;;;5070780;28;20048;-78
2022/03/12 03:51:23;;;;;;;12.90;6.05;;;;;;;;;;5070865;28;20496;-77
2022/03/12 03:53:50;;;;;;;10.15;5.47;;;;;;;;;;5054139;28;20044;-76
2022/03/12 03:56:16;;;;;;;10.93;6.05;;;;;;;;;;5054493;28;20406;-76
2022/03/12 03:58:42;;;;;;;12.55;6.47;;;;;;;;;;5054452;28;20098;-77
2022/03/12 04:01:12;;;;;;;9.80;6.13;;;;;;;;;;5070700;28;20510;-78
2022/03/12 04:03:42;;;;;;;7.35;4.82;;;;;;;;;;5054032;28;20063;-78
2022/03/12 04:06:08;;;;;;;11.02;5.70;;;;;;;;;;5054174;28;20043;-77
2022/03/12 04:08:35;;;;;;;13.00;5.88;;;;;;;;;;5054037;28;20036;-78
2022/03/12 04:11:05;;;;;;;11.65;6.18;;;;;;;;;;5053928;28;20531;-79
2022/03/12 04:13:31;;;;;;;9.60;5.05;;;;;;;;;;5070721;28;20055;-79
2022/03/12 04:16:01;;;;;;;12.52;6.05;;;;;;;;;;5054105;28;20045;-78
2022/03/12 04:18:28;;;;;;;10.20;5.75;;;;;;;;;;5053922;28;20547;-79
2022/03/12 04:20:54;;;;;;;12.60;5.75;;;;;;;;;;5053552;28;20051;-77
2022/03/12 04:23:21;;;;;;;10.55;5.78;;;;;;;;;;5070365;28;20072;-77
2022/03/12 04:25:51;;;;;;;8.43;5.03;;;;;;;;;;5054056;28;20509;-77
2022/03/12 04:28:18;;;;;;;10.80;6.40;;;;;;;;;;5070819;28;20044;-78
2022/03/12 04:30:44;;;;;;;13.45;6.53;;;;;;;;;;5053765;28;20286;-78
2022/03/12 04:33:11;;;;;;;12.57;6.15;;;;;;;;;;5070351;28;20045;-77
2022/03/12 04:35:36;;;;;;;15.90;5.97;;;;;;;;;;5053807;28;20036;-78
2022/03/12 04:38:03;;;;;;;14.90;6.63;;;;;;;;;;5070717;28;20104;-77
2022/03/12 04:40:29;;;;;;;12.63;6.53;;;;;;;;;;5070720;28;20044;-78
2022/03/12 04:42:56;;;;;;;12.10;5.50;;;;;;;;;;5070310;28;20075;-78
2022/03/12 04:45:26;;;;;;;11.80;5.47;;;;;;;;;;5053768;28;20036;-80
2022/03/12 04:47:53;;;;;;;13.48;5.80;;;;;;;;;;5070552;28;20500;-77
2022/03/12 04:50:20;;;;;;;11.43;6.15;;;;;;;;;;5057451;28;20033;-78
2022/03/12 04:52:48;;;;;;;11.90;5.80;;;;;;;;;;5057104;28;20075;-77
2022/03/12 04:55:19;;;;;;;10.27;6.30;;;;;;;;;;5057183;28;20484;-78
2022/03/12 04:57:46;;;;;;;11.18;5.85;;;;;;;;;;5074061;28;20044;-77
2022/03/12 05:00:31;;;;;;;9.90;5.55;;;;;;;;;;5074053;28;20041;-77
2022/03/12 05:03:08;;;;;;;9.40;5.80;;;;;;;;;;5073885;28;20048;-78
2022/03/12 05:05:39;;;;;;;11.68;6.22;;;;;;;;;;5057632;28;20033;-77
2022/03/12 05:08:05;;;;;;;8.68;5.45;;;;;;;;;;5073786;28;20544;-78
2022/03/12 05:10:31;;;;;;;12.88;5.63;;;;;;;;;;5056828;28;20040;-78
2022/03/12 05:13:00;;;;;;;8.15;4.90;;;;;;;;;;5073944;28;20399;-78
2022/03/12 05:15:32;;;;;;;13.50;5.88;;;;;;;;;;5073676;28;20059;-78
2022/03/12 05:17:58;;;;;;;10.57;5.40;;;;;;;;;;5073894;28;20052;-77
2022/03/12 05:20:26;;;;;;;11.38;5.55;;;;;;;;;;5073892;28;20492;-78
2022/03/12 05:22:52;;;;;;;8.98;4.97;;;;;;;;;;5073447;28;20048;-76
2022/03/12 05:25:21;;;;;;;9.40;5.45;;;;;;;;;;5073440;28;20036;-77
2022/03/12 05:27:48;;;;;;;10.32;6.63;;;;;;;;;;5057025;28;20040;-79
2022/03/12 05:30:15;;;;;;;13.10;6.65;;;;;;;;;;5056937;28;20465;-79
2022/03/12 05:32:41;;;;;;;12.52;5.90;;;;;;;;;;5056642;28;20040;-77
2022/03/12 05:35:07;;;;;;;11.55;5.80;;;;;;;;;;5056609;28;20508;-77
2022/03/12 05:37:36;;;;;;;11.82;5.72;;;;;;;;;;5056883;28;20040;-78
2022/03/12 05:40:02;;;;;;;12.73;6.20;;;;;;;;;;5056510;28;20040;-76
2022/03/12 05:42:29;;;;;;;8.90;5.43;;;;;;;;;;5073261;28;20055;-79
2022/03/12 05:44:55;;;;;;;9.93;5.43;;;;;;;;;;5056526;28;20047;-78
2022/03/12 05:47:23;;;;;;;9.05;5.20;;;;;;;;;;5056884;28;20044;-77
2022/03/12 05:49:49;;;;;;;9.52;5.55;;;;;;;;;;5056512;28;20444;-78
2022/03/12 05:52:17;;;;;;;11.50;5.78;;;;;;;;;;5073817;28;20089;-78
2022/03/12 05:54:45;;;;;;;10.82;5.63;;;;;;;;;;5056444;28;20186;-78
2022/03/12 05:57:12;;;;;;;9.80;5.93;;;;;;;;;;5073119;28;20044;-79
2022/03/12 05:59:38;;;;;;;9.15;5.80;;;;;;;;;;5055541;28;20408;-78
2022/03/12 06:02:04;;;;;;;11.35;5.72;;;;;;;;;;5056103;28;20041;-77
2022/03/12 06:04:30;;;;;;;7.78;5.03;;;;;;;;;;5056443;28;20260;-79
2022/03/12 06:06:56;;;;;;;10.18;5.40;;;;;;;;;;5072690;28;20396;-78
2022/03/12 06:09:22;;;;;;;9.70;5.97;;;;;;;;;;5056390;28;20484;-74
2022/03/12 06:11:52;;;;;;;10.55;6.35;;;;;;;;;;5055910;28;20036;-78
2022/03/12 06:14:18;;;;;;;13.20;5.30;;;;;;;;;;5070008;28;20504;-77
2022/03/12 06:16:47;;;;;;;11.55;6.05;;;;;;;;;;5072269;28;20367;-78
2022/03/12 06:19:13;;;;;;;9.93;5.15;;;;;;;;;;5072008;28;20374;-78
2022/03/12 06:21:39;;;;;;;10.30;5.40;;;;;;;;;;5071925;28;20045;-76
2022/03/12 06:24:05;;;;;;;11.40;5.32;;;;;;;;;;5055683;28;20102;-77
2022/03/12 06:26:36;;;;;;;11.52;6.15;;;;;;;;;;5072308;28;20472;-76
2022/03/12 06:29:03;;;;;;;9.52;5.18;;;;;;;;;;5055663;28;20044;-76
2022/03/12 06:31:31;;;;;;;10.40;5.30;;;;;;;;;;5072046;28;20063;-78
2022/03/12 06:33:58;;;;;;;9.30;5.22;;;;;;;;;;5071864;28;20120;-77
2022/03/12 06:36:25;;;;;;;9.35;5.18;;;;;;;;;;5054597;28;20041;-77
2022/03/12 06:38:51;;;;;;;8.43;5.35;;;;;;;;;;5055460;28;20466;-75
2022/03/12 06:41:20;;;;;;;10.35;5.45;;;;;;;;;;5072091;28;20377;-78
2022/03/12 06:43:46;;;;;;;10.90;5.55;;;;;;;;;;5053173;28;20465;-79
2022/03/12 06:46:15;;;;;;;10.75;6.88;;;;;;;;;;5070487;28;20598;-77
2022/03/12 06:48:42;;;;;;;11.82;5.68;;;;;;;;;;5052865;28;20044;-77
2022/03/12 06:51:10;;;;;;;12.98;6.05;;;;;;;;;;5068482;28;20181;-76
2022/03/12 06:53:36;;;;;;;9.27;5.50;;;;;;;;;;5068749;28;20048;-76
2022/03/12 06:56:02;;;;;;;9.48;5.80;;;;;;;;;;5068839;28;20040;-77
2022/03/12 06:58:29;;;;;;;10.60;4.93;;;;;;;;;;5071292;28;20037;-79
2022/03/12 07:00:55;;;;;;;11.02;5.75;;;;;;;;;;5055112;28;20097;-78
2022/03/12 07:03:21;;;;;;;8.60;5.10;;;;;;;;;;5071814;28;20118;-79
2022/03/12 07:05:47;;;;;;;10.43;5.22;;;;;;;;;;5071857;28;20041;-78
2022/03/12 07:08:14;;;;;;;9.95;6.13;;;;;;;;;;5054811;28;20071;-76
2022/03/12 07:10:40;;;;;;;13.13;4.90;;;;;;;;;;5054246;28;20095;-77
2022/03/12 07:13:06;;;;;;;11.13;5.32;;;;;;;;;;5071933;28;20068;-78
2022/03/12 07:15:32;;;;;;;11.43;5.53;;;;;;;;;;5071367;28;20055;-78
2022/03/12 07:17:58;;;;;;;8.93;5.05;;;;;;;;;;5054520;28;20044;-78
2022/03/12 07:20:24;;;;;;;11.70;6.13;;;;;;;;;;5071049;28;20041;-75
2022/03/12 07:22:50;;;;;;;11.65;5.57;;;;;;;;;;5071248;28;20059;-77
2022/03/12 07:25:16;;;;;;;12.00;5.53;;;;;;;;;;5054709;28;20043;-78
2022/03/12 07:27:43;;;;;;;11.50;5.50;;;;;;;;;;5054309;28;20514;-76
2022/03/12 07:30:12;;;;;;;9.05;5.15;;;;;;;;;;5070901;28;20037;-77
2022/03/12 07:32:39;;;;;;;10.65;5.38;;;;;;;;;;5070934;28;20052;-77
2022/03/12 07:35:06;;;;;;;12.27;5.85;;;;;;;;;;5054171;28;20079;-78
2022/03/12 07:37:32;;;;;;;10.73;6.05;;;;;;;;;;5054194;28;20059;-74
2022/03/12 07:39:58;;;;;;;11.93;5.68;;;;;;;;;;5070892;28;20480;-76
2022/03/12 07:42:24;;;;;;;11.68;5.82;;;;;;;;;;5053686;28;20040;-75
2022/03/12 07:44:50;;;;;;;10.38;5.35;;;;;;;;;;5070682;28;20040;-77
2022/03/12 07:47:16;;;;;;;13.98;5.85;;;;;;;;;;5070365;28;20059;-77
2022/03/12 07:49:42;;;;;;;9.77;5.95;;;;;;;;;;5070365;28;20043;-79
2022/03/12 07:52:10;;;;;;;10.90;5.60;;;;;;;;;;5053641;28;20047;-78
2022/03/12 07:54:36;;;;;;;10.07;5.60;;;;;;;;;;5053928;28;20033;-76
2022/03/12 07:57:02;;;;;;;10.57;5.65;;;;;;;;;;5070309;28;20040;-76
2022/03/12 07:59:29;;;;;;;11.48;6.03;;;;;;;;;;5053576;28;20043;-78
2022/03/12 08:01:55;;;;;;;10.77;5.38;;;;;;;;;;5070100;28;20484;-74
2022/03/12 08:04:22;;;;;;;15.07;5.97;;;;;;;;;;5053913;28;20193;-73
2022/03/12 08:06:49;;;;;;;12.07;5.53;;;;;;;;;;5053846;28;20032;-73
2022/03/12 08:09:15;;;;;;;11.73;5.97;;;;;;;;;;5054136;28;20040;-77
2022/03/12 08:11:41;;;;;;;9.20;5.90;;;;;;;;;;5053361;28;20519;-77
2022/03/12 08:14:08;;;;;;;10.68;5.25;;;;;;;;;;5053385;28;20052;-79
2022/03/12 08:16:35;;;;;;;9.70;5.25;;;;;;;;;;5070112;28;20047;-78
2022/03/12 08:19:02;;;;;;;11.25;5.88;;;;;;;;;;5070052;28;20053;-76
2022/03/12 08:21:28;;;;;;;10.45;6.18;;;;;;;;;;5053304;28;20052;-77
2022/03/12 08:23:54;;;;;;;9.95;5.75;;;;;;;;;;5057381;28;20041;-75
2022/03/12 08:26:21;;;;;;;11.85;5.20;;;;;;;;;;5057602;28;20048;-75
2022/03/12 08:28:47;;;;;;;10.60;6.57;;;;;;;;;;5074030;28;20451;-76
2022/03/12 08:31:13;;;;;;;9.02;6.10;;;;;;;;;;5057397;28;20082;-78
2022/03/12 08:33:39;;;;;;;11.13;6.30;;;;;;;;;;5073971;28;20127;-76
2022/03/12 08:36:06;;;;;;;10.30;5.35;;;;;;;;;;5057538;28;20075;-75
2022/03/12 08:38:34;;;;;;;11.25;6.07;;;;;;;;;;5057561;28;20045;-75
2022/03/12 08:41:00;;;;;;;10.45;6.20;;;;;;;;;;5057323;28;20048;-76
2022/03/12 08:43:26;;;;;;;10.80;5.90;;;;;;;;;;5073606;28;20105;-78
2022/03/12 08:45:52;;;;;;;10.95;6.03;;;;;;;;;;5057342;28;20049;-76
2022/03/12 08:48:18;;;;;;;10.20;5.90;;;;;;;;;;5057099;28;20374;-78
2022/03/12 08:50:45;;;;;;;12.73;6.13;;;;;;;;;;5057320;28;20068;-75
2022/03/12 08:53:11;;;;;;;8.80;5.07;;;;;;;;;;5057045;28;20044;-75
2022/03/12 08:55:38;;;;;;;12.43;6.70;;;;;;;;;;5073579;28;20040;-76
2022/03/12 08:58:04;;;;;;;8.90;6.03;;;;;;;;;;5073602;28;20414;-78
2022/03/12 09:00:31;;;;;;;12.52;6.30;;;;;;;;;;5073848;28;20040;-76
2022/03/12 09:02:57;;;;;;;13.82;7.03;;;;;;;;;;5056753;28;20040;-77
2022/03/12 09:05:23;;;;;;;10.45;6.13;;;;;;;;;;5073240;28;20043;-74
2022/03/12 09:07:51;;;;;;;11.93;6.70;;;;;;;;;;5073385;28;20094;-78
2022/03/12 09:10:18;;;;;;;9.70;6.20;;;;;;;;;;5073211;28;20044;-73
2022/03/12 09:12:44;;;;;;;13.65;7.03;;;;;;;;;;5056991;28;20041;-75
2022/03/12 09:15:10;;;;;;;12.70;7.85;;;;;;;;;;5073095;28;20102;-74
2022/03/12 09:17:36;;;;;;;12.52;6.65;;;;;;;;;;5073550;28;20074;-77
2022/03/12 09:20:06;;;;;;;11.18;6.45;;;;;;;;;;5056610;28;20048;-79
2022/03/12 09:22:32;;;;;;;9.88;6.60;;;;;;;;;;5072997;28;20110;-75
2022/03/12 09:24:59;;;;;;;12.85;7.00;;;;;;;;;;5056539;28;20484;-80
2022/03/12 09:27:25;;;;;;;12.55;6.85;;;;;;;;;;5073171;28;20041;-76
2022/03/12 09:29:51;;;;;;;11.25;6.50;;;;;;;;;;5073522;28;20036;-75
2022/03/12 09:32:17;;;;;;;11.65;6.50;;;;;;;;;;5073211;28;20068;-75
2022/03/12 09:34:43;;;;;;;10.07;6.18;;;;;;;;;;5071888;28;20048;-77
2022/03/12 09:37:09;;;;;;;11.02;6.75;;;;;;;;;;5056228;28;20404;-75
2022/03/12 09:39:36;;;;;;;11.00;7.47;;;;;;;;;;5056252;28;20052;-76
2022/03/12 09:42:02;;;;;;;10.43;7.00;;;;;;;;;;5056068;28;20036;-75
2022/03/12 09:44:28;;;;;;;13.30;7.65;;;;;;;;;;5056322;28;20040;-78
2022/03/12 09:46:55;;;;;;;11.50;6.53;;;;;;;;;;5056285;28;20036;-78
2022/03/12 09:49:21;;;;;;;11.23;6.55;;;;;;;;;;5072825;28;20055;-78
2022/03/12 09:51:47;;;;;;;11.10;7.40;;;;;;;;;;5055800;28;20063;-78
2022/03/12 09:54:13;;;;;;;13.85;7.05;;;;;;;;;;5055706;28;20081;-76
2022/03/12 09:56:40;;;;;;;12.45;7.40;;;;;;;;;;5072717;28;20048;-77
2022/03/12 09:59:06;;;;;;;11.27;7.47;;;;;;;;;;5055803;28;20400;-75
2022/03/12 10:01:32;;;;;;;12.27;6.43;;;;;;;;;;5072570;28;20127;-73
2022/03/12 10:03:58;;;;;;;11.15;6.55;;;;;;;;;;5055593;28;20119;-78
2022/03/12 10:06:24;;;;;;;11.63;5.32;;;;;;;;;;5072411;28;20045;-75
2022/03/12 10:08:52;;;;;;;15.85;7.38;;;;;;;;;;5055655;28;20131;-75
2022/03/12 10:11:18;;;;;;;10.77;7.03;;;;;;;;;;5072118;28;20051;-78
2022/03/12 10:13:44;;;;;;;10.90;7.47;;;;;;;;;;5072109;28;20058;-75
2022/03/12 10:16:11;;;;;;;12.07;7.57;;;;;;;;;;5072068;28;20045;-77
2022/03/12 10:18:37;;;;;;;10.02;6.47;;;;;;;;;;5055627;28;20045;-76
2022/03/12 10:21:03;;;;;;;10.57;6.82;;;;;;;;;;5072039;28;20492;-77
2022/03/12 10:23:29;;;;;;;12.90;7.22;;;;;;;;;;5055171;28;20472;-77
2022/03/12 10:25:55;;;;;;;13.05;7.97;;;;;;;;;;5055387;28;20190;-77
2022/03/12 10:28:21;;;;;;;10.02;6.90;;;;;;;;;;5072080;28;20076;-79
2022/03/12 10:30:47;;;;;;;14.70;7.47;;;;;;;;;;5071750;28;20083;-79
2022/03/12 10:33:24;;;;;;;11.40;6.82;;;;;;;;;;5055047;28;20127;-78
2022/03/12 10:35:50;;;;;;;13.30;7.38;;;;;;;;;;5055137;28;20076;-78
2022/03/12 10:38:17;;;;;;;10.75;6.93;;;;;;;;;;5071662;28;20047;-78
2022/03/12 10:40:44;;;;;;;12.13;7.20;;;;;;;;;;5071425;28;20075;-75
2022/03/12 10:43:14;;;;;;;13.35;7.13;;;;;;;;;;5054988;28;20044;-78
2022/03/12 10:45:45;;;;;;;11.75;7.63;;;;;;;;;;5054969;28;20039;-76
2022/03/12 10:48:12;;;;;;;11.43;7.40;;;;;;;;;;5055128;28;20055;-76
2022/03/12 10:50:39;;;;;;;11.07;7.15;;;;;;;;;;5054733;28;20036;-76
2022/03/12 10:53:06;;;;;;;13.02;6.93;;;;;;;;;;5055044;28;20044;-77
2022/03/12 10:55:40;;;;;;;12.05;7.53;;;;;;;;;;5054790;28;20040;-77
2022/03/12 10:58:23;;;;;;;14.43;7.10;;;;;;;;;;5071402;28;20055;-77
2022/03/12 11:00:54;;;;;;;11.95;7.22;;;;;;;;;;5054542;28;20052;-77
2022/03/12 11:03:24;;;;;;;11.80;7.93;;;;;;;;;;5071410;28;20044;-77
2022/03/12 11:05:51;;;;;;;12.67;7.27;;;;;;;;;;5054708;28;20040;-79
2022/03/12 11:08:23;;;;;;;11.50;6.55;;;;;;;;;;5054439;28;20036;-79
2022/03/12 11:10:51;;;;;;;13.30;6.75;;;;;;;;;;5071116;28;20036;-78
2022/03/12 11:13:34;;;;;;;10.60;7.03;;;;;;;;;;5054563;28;20036;-76
2022/03/12 11:16:14;;;;;;;12.98;7.43;;;;;;;;;;5071229;28;20512;-78
2022/03/12 11:18:53;;;;;;;13.38;7.15;;;;;;;;;;5070990;28;20048;-77
2022/03/12 11:21:28;;;;;;;15.25;7.38;;;;;;;;;;5054501;28;20072;-78
2022/03/12 11:23:55;;;;;;;13.40;7.53;;;;;;;;;;5054461;28;20045;-78
2022/03/12 11:26:23;;;;;;;16.15;7.85;;;;;;;;;;5054448;28;20037;-79
2022/03/12 11:28:57;;;;;;;11.45;7.47;;;;;;;;;;5054370;28;20131;-77
2022/03/12 11:31:39;;;;;;;12.23;7.70;;;;;;;;;;5054340;28;20089;-76
2022/03/12 11:34:25;;;;;;;13.55;7.78;;;;;;;;;;5054069;28;20055;-77
2022/03/12 11:36:57;;;;;;;17.63;7.97;;;;;;;;;;5070853;28;20572;-78
2022/03/12 11:39:29;;;;;;;11.77;7.43;;;;;;;;;;5053870;28;20062;-78
2022/03/12 11:42:03;;;;;;;13.88;7.45;;;;;;;;;;5053698;28;20132;-75
2022/03/12 11:44:30;;;;;;;13.07;7.03;;;;;;;;;;5053689;28;20036;-78
2022/03/12 11:46:56;;;;;;;12.82;7.55;;;;;;;;;;5053641;28;20044;-79
2022/03/12 11:49:24;;;;;;;16.00;7.63;;;;;;;;;;5070452;28;20094;-77
2022/03/12 11:51:51;;;;;;;13.30;7.82;;;;;;;;;;5070761;28;20131;-75
2022/03/12 11:54:17;;;;;;;12.02;6.40;;;;;;;;;;5053484;28;20055;-77
2022/03/12 11:56:43;;;;;;;13.25;6.97;;;;;;;;;;5070258;28;20036;-77
2022/03/12 11:59:09;;;;;;;12.48;7.65;;;;;;;;;;5053521;28;20370;-75
2022/03/12 12:01:37;;;;;;;13.55;7.55;;;;;;;;;;5070428;28;20087;-78
2022/03/12 12:04:03;;;;;;;11.52;6.20;;;;;;;;;;5070529;28;20119;-79
2022/03/12 12:06:29;;;;;;;13.73;7.72;;;;;;;;;;5053454;28;20045;-74
2022/03/12 12:08:56;;;;;;;13.30;7.75;;;;;;;;;;5070203;28;20087;-77
2022/03/12 12:11:22;;;;;;;9.63;7.43;;;;;;;;;;5053577;28;20174;-78
2022/03/12 12:13:49;;;;;;;12.55;7.43;;;;;;;;;;5053492;28;20531;-75
2022/03/12 12:16:18;;;;;;;14.23;7.18;;;;;;;;;;5070267;28;20051;-77
2022/03/12 12:18:45;;;;;;;12.48;7.00;;;;;;;;;;5053383;28;20528;-78
2022/03/12 12:21:16;;;;;;;11.13;6.75;;;;;;;;;;5053506;28;20052;-74
2022/03/12 12:23:42;;;;;;;12.90;7.50;;;;;;;;;;5070281;28;20043;-77
2022/03/12 12:26:09;;;;;;;12.38;7.60;;;;;;;;;;5053331;28;20527;-76
2022/03/12 12:28:52;;;;;;;13.00;7.15;;;;;;;;;;5053477;28;20393;-76
2022/03/12 12:31:27;;;;;;;14.05;6.43;;;;;;;;;;5070299;28;20131;-77
2022/03/12 12:33:56;;;;;;;11.57;6.80;;;;;;;;;;5053514;28;20043;-74
2022/03/12 12:36:22;;;;;;;15.30;7.47;;;;;;;;;;5053169;28;20036;-76
2022/03/12 12:39:07;;;;;;;12.27;6.88;;;;;;;;;;5069934;28;20063;-74
2022/03/12 12:41:52;;;;;;;10.43;6.45;;;;;;;;;;5069743;28;20044;-75
2022/03/12 12:44:33;;;;;;;12.80;6.15;;;;;;;;;;5070166;28;20033;-75
2022/03/12 12:47:01;;;;;;;10.25;5.30;;;;;;;;;;5053106;28;20037;-78
2022/03/12 12:49:35;;;;;;;10.75;5.85;;;;;;;;;;5053078;28;20041;-77
2022/03/12 12:52:02;;;;;;;10.57;6.03;;;;;;;;;;5069834;28;20102;-76
2022/03/12 12:54:46;;;;;;;11.18;6.30;;;;;;;;;;5053016;28;20488;-78
2022/03/12 12:57:13;;;;;;;9.48;5.82;;;;;;;;;;5052901;28;20127;-74
2022/03/12 12:59:41;;;;;;;9.25;5.05;;;;;;;;;;5053176;28;20048;-76
2022/03/12 13:02:07;;;;;;;11.35;5.95;;;;;;;;;;5053168;28;20076;-77
2022/03/12 13:04:47;;;;;;;15.88;5.90;;;;;;;;;;5053386;28;20094;-78
2022/03/12 13:07:19;;;;;;;8.88;5.45;;;;;;;;;;5069667;28;20127;-75
2022/03/12 13:09:48;;;;;;;10.07;6.30;;;;;;;;;;5071517;28;20044;-75
2022/03/12 13:12:15;;;;;;;9.60;6.45;;;;;;;;;;5056935;28;20024;-75
2022/03/12 13:14:45;;;;;;;10.25;5.78;;;;;;;;;;5056513;28;20048;-76
2022/03/12 13:17:25;;;;;;;10.40;5.57;;;;;;;;;;5056528;28;20048;-76
2022/03/12 13:19:51;;;;;;;9.87;6.33;;;;;;;;;;5073396;28;20036;-77
2022/03/12 13:22:20;;;;;;;9.95;6.25;;;;;;;;;;5056350;28;20723;-75
2022/03/12 13:24:56;;;;;;;11.35;6.43;;;;;;;;;;5056380;28;20071;-76
2022/03/12 13:27:24;;;;;;;9.95;5.53;;;;;;;;;;5073517;28;20040;-74
2022/03/12 13:30:10;;;;;;;10.90;6.85;;;;;;;;;;5056380;28;20089;-75
2022/03/12 13:32:40;;;;;;;9.75;6.30;;;;;;;;;;5056527;28;20048;-75
2022/03/12 13:35:07;;;;;;;10.52;5.60;;;;;;;;;;5072923;28;20114;-73
2022/03/12 13:37:33;;;;;;;10.63;5.95;;;;;;;;;;5056462;28;20040;-74
2022/03/12 13:40:09;;;;;;;10.00;6.00;;;;;;;;;;5073439;28;20503;-76
2022/03/12 13:42:36;;;;;;;10.75;6.13;;;;;;;;;;5055975;28;20064;-75
2022/03/12 13:45:04;;;;;;;10.25;5.65;;;;;;;;;;5056042;28;20036;-76
2022/03/12 13:47:30;;;;;;;12.23;6.18;;;;;;;;;;5056013;28;20044;-76
2022/03/12 13:49:57;;;;;;;10.68;6.10;;;;;;;;;;5055857;28;20543;-78
2022/03/12 13:52:23;;;;;;;11.57;6.47;;;;;;;;;;5056222;28;20542;-73
2022/03/12 13:54:59;;;;;;;11.45;6.03;;;;;;;;;;5072643;28;20043;-75
2022/03/12 13:57:27;;;;;;;8.73;5.63;;;;;;;;;;5055950;28;20044;-75
2022/03/12 14:00:00;;;;;;;10.10;6.25;;;;;;;;;;5072784;28;20496;-74
2022/03/12 14:02:26;;;;;;;13.05;6.57;;;;;;;;;;5055941;28;20396;-76
2022/03/12 14:04:55;;;;;;;8.90;5.70;;;;;;;;;;5056228;28;20040;-73
2022/03/12 14:07:21;;;;;;;9.80;6.22;;;;;;;;;;5072593;28;20048;-76
2022/03/12 14:09:48;;;;;;;9.25;5.63;;;;;;;;;;5055661;28;20044;-76
2022/03/12 14:12:18;;;;;;;10.02;5.80;;;;;;;;;;5055443;28;20040;-74
2022/03/12 14:14:46;;;;;;;9.93;5.93;;;;;;;;;;5055893;28;20140;-75
2022/03/12 14:17:12;;;;;;;10.35;5.68;;;;;;;;;;5072583;28;20048;-77
2022/03/12 14:19:38;;;;;;;8.50;5.18;;;;;;;;;;5072162;28;20127;-76
2022/03/12 14:22:06;;;;;;;10.70;4.38;;;;;;;;;;5071982;28;20131;-76
2022/03/12 14:24:34;;;;;;;8.88;4.55;;;;;;;;;;5072077;28;20048;-74
2022/03/12 14:27:01;;;;;;;9.23;5.53;;;;;;;;;;5055070;28;20436;-78
2022/03/12 14:29:28;;;;;;;9.75;5.28;;;;;;;;;;5071734;28;20048;-75
2022/03/12 14:31:56;;;;;;;6.97;4.57;;;;;;;;;;5071895;28;20176;-78
2022/03/12 14:34:22;;;;;;;7.10;4.35;;;;;;;;;;5055926;28;20052;-74
2022/03/12 14:36:49;;;;;;;9.40;5.45;;;;;;;;;;5072352;28;20047;-77